createdAt,value
2023-06-07T00:00:10.047Z,79.08
2023-06-07T00:01:10.028Z,78.75
2023-06-07T00:02:10.075Z,79.35
2023-06-07T00:03:10.116Z,79.39
2023-06-07T00:04:10.354Z,79.25
2023-06-07T00:05:10.077Z,80.16
2023-06-07T00:06:10.029Z,80.46
2023-06-07T00:07:10.059Z,80.36
2023-06-07T00:08:10.070Z,79.69
2023-06-07T00:09:09.933Z,78.88
2023-06-07T00:10:09.929Z,78.88
2023-06-07T00:11:10.440Z,78.88
2023-06-07T00:12:09.939Z,78.68
2023-06-07T00:13:09.931Z,78.88
2023-06-07T00:14:09.885Z,79.49
2023-06-07T00:15:09.893Z,78.88
2023-06-07T00:16:09.869Z,79.29
2023-06-07T00:17:09.936Z,78.99
2023-06-07T00:18:09.946Z,78.78
2023-06-07T00:19:09.839Z,78.72
2023-06-07T00:20:09.885Z,79.53
2023-06-07T00:21:09.799Z,79.33
2023-06-07T00:22:09.836Z,79.43
2023-06-07T00:23:09.785Z,80.24
2023-06-07T00:24:09.828Z,79.33
2023-06-07T00:25:09.867Z,79.43
2023-06-07T00:26:09.745Z,80.04
2023-06-07T00:27:09.776Z,80.04
2023-06-07T00:28:09.768Z,79.53
2023-06-07T00:29:09.716Z,79.33
2023-06-07T00:30:09.713Z,79.43
2023-06-07T00:31:09.786Z,79.02
2023-06-07T00:32:09.676Z,79.63
2023-06-07T00:33:09.745Z,79.63
2023-06-07T00:34:09.686Z,79.13
2023-06-07T00:35:09.732Z,79.22
2023-06-07T00:36:09.637Z,79.22
2023-06-07T00:37:09.633Z,79.43
2023-06-07T00:38:09.614Z,79.22
2023-06-07T00:39:09.605Z,78.62
2023-06-07T00:40:09.629Z,78.72
2023-06-07T00:41:09.604Z,79.16
2023-06-07T00:42:09.570Z,79.36
2023-06-07T00:43:09.556Z,79.57
2023-06-07T00:44:09.598Z,79.77
2023-06-07T00:45:09.540Z,79.97
2023-06-07T00:46:09.522Z,79.87
2023-06-07T00:47:09.512Z,80.18
2023-06-07T00:48:09.645Z,79.77
2023-06-07T00:49:09.488Z,79.57
2023-06-07T00:50:09.483Z,79.36
2023-06-07T00:51:09.473Z,79.16
2023-06-07T00:52:09.460Z,79.46
2023-06-07T00:53:09.444Z,80.18
2023-06-07T00:54:09.445Z,79.16
2023-06-07T00:55:09.469Z,79.36
2023-06-07T00:56:09.426Z,79.57
2023-06-07T00:57:09.404Z,79.57
2023-06-07T00:58:09.403Z,80.27
2023-06-07T00:59:09.377Z,79.87
2023-06-07T01:00:09.393Z,79.57
2023-06-07T01:01:09.396Z,79.67
2023-06-07T01:02:09.436Z,79.77
2023-06-07T01:03:09.396Z,80.18
2023-06-07T01:04:09.321Z,79.97
2023-06-07T01:05:09.318Z,80.18
2023-06-07T01:06:09.312Z,79.57
2023-06-07T01:07:09.287Z,78.66
2023-06-07T01:08:09.271Z,79.46
2023-06-07T01:09:09.268Z,79.87
2023-06-07T01:10:09.261Z,80.27
2023-06-07T01:11:09.250Z,80.27
2023-06-07T01:12:09.251Z,80.27
2023-06-07T01:13:09.224Z,79.97
2023-06-07T01:14:09.213Z,79.57
2023-06-07T01:15:09.236Z,79.46
2023-06-07T01:16:09.226Z,79.46
2023-06-07T01:17:09.182Z,79.57
2023-06-07T01:18:09.194Z,80.78
2023-06-07T01:19:09.164Z,79.97
2023-06-07T01:20:09.148Z,79.67
2023-06-07T01:21:09.146Z,79.77
2023-06-07T01:22:09.118Z,79.77
2023-06-07T01:23:09.109Z,78.86
2023-06-07T01:24:09.170Z,78.69
2023-06-07T01:25:09.086Z,79.20
2023-06-07T01:26:09.122Z,79.71
2023-06-07T01:27:09.070Z,79.60
2023-06-07T01:28:09.074Z,79.60
2023-06-07T01:29:09.060Z,78.89
2023-06-07T01:30:09.050Z,79.20
2023-06-07T01:31:09.032Z,79.60
2023-06-07T01:32:09.180Z,79.91
2023-06-07T01:33:09.053Z,79.50
2023-06-07T01:34:08.989Z,79.46
2023-06-07T01:35:08.993Z,79.67
2023-06-07T01:36:08.961Z,80.01
2023-06-07T01:37:08.987Z,80.21
2023-06-07T01:38:08.940Z,80.31
2023-06-07T01:39:08.932Z,79.97
2023-06-07T01:40:08.923Z,79.97
2023-06-07T01:41:08.916Z,79.80
2023-06-07T01:42:08.917Z,79.10
2023-06-07T01:43:08.962Z,79.10
2023-06-07T01:44:08.973Z,79.40
2023-06-07T01:45:08.860Z,79.50
2023-06-07T01:46:08.916Z,79.91
2023-06-07T01:47:08.852Z,79.60
2023-06-07T01:48:08.879Z,79.74
2023-06-07T01:49:08.828Z,80.21
2023-06-07T01:50:08.797Z,80.86
2023-06-07T01:51:08.790Z,80.11
2023-06-07T01:52:08.777Z,80.41
2023-06-07T01:53:08.790Z,79.85
2023-06-07T01:54:08.778Z,80.21
2023-06-07T01:55:08.785Z,80.15
2023-06-07T01:56:08.736Z,79.94
2023-06-07T01:57:08.723Z,80.25
2023-06-07T01:58:08.712Z,79.94
2023-06-07T01:59:08.734Z,80.45
2023-06-07T02:00:08.717Z,80.35
2023-06-07T02:01:08.697Z,80.35
2023-06-07T02:02:08.671Z,80.45
2023-06-07T02:03:08.708Z,80.55
2023-06-07T02:04:08.667Z,79.94
2023-06-07T02:05:08.651Z,79.74
2023-06-07T02:06:08.624Z,80.45
2023-06-07T02:07:08.618Z,80.55
2023-06-07T02:08:08.602Z,80.79
2023-06-07T02:09:08.680Z,79.94
2023-06-07T02:10:08.610Z,79.68
2023-06-07T02:11:08.590Z,80.49
2023-06-07T02:12:08.556Z,80.59
2023-06-07T02:13:08.542Z,80.19
2023-06-07T02:14:08.536Z,80.39
2023-06-07T02:15:08.548Z,80.99
2023-06-07T02:16:08.549Z,81.40
2023-06-07T02:17:08.554Z,81.91
2023-06-07T02:18:08.505Z,81.46
2023-06-07T02:19:08.560Z,81.71
2023-06-07T02:20:08.487Z,80.49
2023-06-07T02:21:08.480Z,79.85
2023-06-07T02:22:08.443Z,80.49
2023-06-07T02:23:08.447Z,80.65
2023-06-07T02:24:08.458Z,81.30
2023-06-07T02:25:08.410Z,81.10
2023-06-07T02:26:08.466Z,80.79
2023-06-07T02:27:08.395Z,81.40
2023-06-07T02:28:08.400Z,80.79
2023-06-07T02:29:08.405Z,80.99
2023-06-07T02:30:08.350Z,80.99
2023-06-07T02:31:08.360Z,80.90
2023-06-07T02:32:08.354Z,80.96
2023-06-07T02:33:08.369Z,80.49
2023-06-07T02:34:08.306Z,80.39
2023-06-07T02:35:08.330Z,80.90
2023-06-07T02:36:08.288Z,80.59
2023-06-07T02:37:08.279Z,81.60
2023-06-07T02:38:08.278Z,81.10
2023-06-07T02:39:08.272Z,80.69
2023-06-07T02:40:08.251Z,80.90
2023-06-07T02:41:08.238Z,80.79
2023-06-07T02:42:08.265Z,80.99
2023-06-07T02:43:08.207Z,80.79
2023-06-07T02:44:08.204Z,80.99
2023-06-07T02:45:08.186Z,80.79
2023-06-07T02:46:08.177Z,80.79
2023-06-07T02:47:08.254Z,80.79
2023-06-07T02:48:08.317Z,80.49
2023-06-07T02:49:08.136Z,80.79
2023-06-07T02:50:08.135Z,80.69
2023-06-07T02:51:08.136Z,80.69
2023-06-07T02:52:08.117Z,80.79
2023-06-07T02:53:08.144Z,80.69
2023-06-07T02:54:08.088Z,80.49
2023-06-07T02:55:08.082Z,80.99
2023-06-07T02:56:08.074Z,81.44
2023-06-07T02:57:08.077Z,81.44
2023-06-07T02:58:08.058Z,81.44
2023-06-07T02:59:08.028Z,81.64
2023-06-07T03:00:08.010Z,82.05
2023-06-07T03:01:08.097Z,81.54
2023-06-07T03:02:08.030Z,81.64
2023-06-07T03:03:08.087Z,82.35
2023-06-07T03:04:08.040Z,82.25
2023-06-07T03:05:07.995Z,81.54
2023-06-07T03:06:07.956Z,81.54
2023-06-07T03:07:07.952Z,81.04
2023-06-07T03:08:07.938Z,81.34
2023-06-07T03:09:07.914Z,81.24
2023-06-07T03:10:07.910Z,81.04
2023-06-07T03:11:07.889Z,80.83
2023-06-07T03:12:07.876Z,80.93
2023-06-07T03:13:07.887Z,81.24
2023-06-07T03:14:07.866Z,81.54
2023-06-07T03:15:07.877Z,82.05
2023-06-07T03:16:07.844Z,82.05
2023-06-07T03:17:07.868Z,81.88
2023-06-07T03:18:07.866Z,81.07
2023-06-07T03:19:07.807Z,81.48
2023-06-07T03:20:08.206Z,81.88
2023-06-07T03:21:07.790Z,81.78
2023-06-07T03:22:07.785Z,82.09
2023-06-07T03:23:07.763Z,81.68
2023-06-07T03:24:07.821Z,81.99
2023-06-07T03:25:07.744Z,82.50
2023-06-07T03:26:07.847Z,82.19
2023-06-07T03:27:07.752Z,82.12
2023-06-07T03:28:07.720Z,82.43
2023-06-07T03:29:07.699Z,82.50
2023-06-07T03:30:07.913Z,81.58
2023-06-07T03:31:07.702Z,81.68
2023-06-07T03:32:07.668Z,82.50
2023-06-07T03:33:07.707Z,81.68
2023-06-07T03:34:07.633Z,81.88
2023-06-07T03:35:07.633Z,81.38
2023-06-07T03:36:07.664Z,81.62
2023-06-07T03:37:07.606Z,82.23
2023-06-07T03:38:07.617Z,82.12
2023-06-07T03:39:07.604Z,81.62
2023-06-07T03:40:07.918Z,82.23
2023-06-07T03:41:07.614Z,82.23
2023-06-07T03:42:07.568Z,82.73
2023-06-07T03:43:07.548Z,82.73
2023-06-07T03:44:07.529Z,82.84
2023-06-07T03:45:07.516Z,82.73
2023-06-07T03:46:07.512Z,82.64
2023-06-07T03:47:07.562Z,82.64
2023-06-07T03:48:07.606Z,82.23
2023-06-07T03:49:07.565Z,82.33
2023-06-07T03:50:07.700Z,81.72
2023-06-07T03:51:07.456Z,82.12
2023-06-07T03:52:07.472Z,82.12
2023-06-07T03:53:07.453Z,82.64
2023-06-07T03:54:07.411Z,82.94
2023-06-07T03:55:07.418Z,83.34
2023-06-07T03:56:07.391Z,83.54
2023-06-07T03:57:07.405Z,83.04
2023-06-07T03:58:07.371Z,82.84
2023-06-07T03:59:07.364Z,81.92
2023-06-07T04:00:07.514Z,82.53
2023-06-07T04:01:07.335Z,82.12
2023-06-07T04:02:07.366Z,82.43
2023-06-07T04:03:07.449Z,81.82
2023-06-07T04:04:07.494Z,82.84
2023-06-07T04:05:07.319Z,82.94
2023-06-07T04:06:07.283Z,82.73
2023-06-07T04:07:07.270Z,82.64
2023-06-07T04:08:07.290Z,82.64
2023-06-07T04:09:07.266Z,82.43
2023-06-07T04:10:07.654Z,81.82
2023-06-07T04:11:07.227Z,81.82
2023-06-07T04:12:07.216Z,82.43
2023-06-07T04:13:07.235Z,82.64
2023-06-07T04:14:07.203Z,82.53
2023-06-07T04:15:07.202Z,82.94
2023-06-07T04:16:07.279Z,82.73
2023-06-07T04:17:07.161Z,82.94
2023-06-07T04:18:07.229Z,83.28
2023-06-07T04:19:07.156Z,83.04
2023-06-07T04:20:07.455Z,83.75
2023-06-07T04:21:07.118Z,83.75
2023-06-07T04:22:07.121Z,83.54
2023-06-07T04:23:07.092Z,82.87
2023-06-07T04:24:07.154Z,83.38
2023-06-07T04:25:07.093Z,82.87
2023-06-07T04:26:07.124Z,82.78
2023-06-07T04:27:07.072Z,83.69
2023-06-07T04:28:07.029Z,83.69
2023-06-07T04:29:15.166Z,83.38
2023-06-07T04:30:07.251Z,83.48
2023-06-07T04:31:07.002Z,83.18
2023-06-07T04:32:07.034Z,83.69
2023-06-07T04:33:07.067Z,83.69
2023-06-07T04:34:06.985Z,83.48
2023-06-07T04:35:06.974Z,83.99
2023-06-07T04:36:06.969Z,83.48
2023-06-07T04:37:06.948Z,84.20
2023-06-07T04:38:06.922Z,84.09
2023-06-07T04:39:06.905Z,83.99
2023-06-07T04:40:07.363Z,83.34
2023-06-07T04:41:06.898Z,83.04
2023-06-07T04:42:06.874Z,84.16
2023-06-07T04:43:06.871Z,83.45
2023-06-07T04:44:06.873Z,83.54
2023-06-07T04:45:06.844Z,83.45
2023-06-07T04:46:06.876Z,83.65
2023-06-07T04:47:10.774Z,83.54
2023-06-07T04:48:07.847Z,82.84
2023-06-07T04:49:06.794Z,83.45
2023-06-07T04:50:07.098Z,83.75
2023-06-07T04:51:06.786Z,83.79
2023-06-07T04:52:06.790Z,83.54
2023-06-07T04:53:06.784Z,83.75
2023-06-07T04:54:06.742Z,83.59
2023-06-07T04:55:06.733Z,83.18
2023-06-07T04:56:06.738Z,84.20
2023-06-07T04:57:06.729Z,83.79
2023-06-07T04:58:06.702Z,84.40
2023-06-07T04:59:06.694Z,84.26
2023-06-07T05:00:06.922Z,83.18
2023-06-07T05:01:06.855Z,83.75
2023-06-07T05:02:06.668Z,83.54
2023-06-07T05:03:06.671Z,83.69
2023-06-07T05:04:06.656Z,83.54
2023-06-07T05:05:06.650Z,83.69
2023-06-07T05:06:06.608Z,83.75
2023-06-07T05:07:06.597Z,83.54
2023-06-07T05:08:06.609Z,84.05
2023-06-07T05:09:06.574Z,84.05
2023-06-07T05:10:06.756Z,84.16
2023-06-07T05:11:06.555Z,83.95
2023-06-07T05:12:06.586Z,83.24
2023-06-07T05:13:06.534Z,83.54
2023-06-07T05:14:06.554Z,83.54
2023-06-07T05:15:06.518Z,83.75
2023-06-07T05:16:06.519Z,83.65
2023-06-07T05:17:06.493Z,83.65
2023-06-07T05:18:06.516Z,83.65
2023-06-07T05:19:06.465Z,83.85
2023-06-07T05:20:06.724Z,83.24
2023-06-07T05:21:06.443Z,83.54
2023-06-07T05:22:06.444Z,83.61
2023-06-07T05:23:06.461Z,83.81
2023-06-07T05:24:06.492Z,82.90
2023-06-07T05:25:06.413Z,83.51
2023-06-07T05:26:06.390Z,82.73
2023-06-07T05:27:06.410Z,82.53
2023-06-07T05:28:13.031Z,83.04
2023-06-07T05:29:07.353Z,82.90
2023-06-07T05:30:06.597Z,83.00
2023-06-07T05:31:07.268Z,83.00
2023-06-07T05:32:06.320Z,83.40
2023-06-07T05:33:06.385Z,83.40
2023-06-07T05:34:06.312Z,83.81
2023-06-07T05:35:06.282Z,82.59
2023-06-07T05:36:06.290Z,82.70
2023-06-07T05:37:06.272Z,82.80
2023-06-07T05:38:06.257Z,83.51
2023-06-07T05:39:06.285Z,83.10
2023-06-07T05:40:06.605Z,82.50
2023-06-07T05:41:06.223Z,82.59
2023-06-07T05:42:06.210Z,83.61
2023-06-07T05:43:06.198Z,82.96
2023-06-07T05:44:06.208Z,83.37
2023-06-07T05:45:06.190Z,82.66
2023-06-07T05:46:06.164Z,82.66
2023-06-07T05:47:06.228Z,82.86
2023-06-07T05:48:06.175Z,82.45
2023-06-07T05:49:06.143Z,82.35
2023-06-07T05:50:06.417Z,81.95
2023-06-07T05:51:08.456Z,82.35
2023-06-07T05:52:06.095Z,82.42
2023-06-07T05:53:06.102Z,81.71
2023-06-07T05:54:06.098Z,82.11
2023-06-07T05:55:06.063Z,82.21
2023-06-07T05:56:06.059Z,81.81
2023-06-07T05:57:06.050Z,82.31
2023-06-07T05:58:06.040Z,81.44
2023-06-07T05:59:06.050Z,82.21
2023-06-07T06:00:06.306Z,81.85
2023-06-07T06:01:05.998Z,81.74
2023-06-07T06:02:06.043Z,82.56
2023-06-07T06:03:05.988Z,82.11
2023-06-07T06:04:05.967Z,81.95
2023-06-07T06:05:06.041Z,81.81
2023-06-07T06:06:05.947Z,81.60
2023-06-07T06:07:05.970Z,81.81
2023-06-07T06:08:05.923Z,81.74
2023-06-07T06:09:05.908Z,82.21
2023-06-07T06:10:06.456Z,82.82
2023-06-07T06:11:05.882Z,82.52
2023-06-07T06:12:05.883Z,81.81
2023-06-07T06:13:05.870Z,82.01
2023-06-07T06:14:05.857Z,81.60
2023-06-07T06:15:05.850Z,81.81
2023-06-07T06:16:05.862Z,82.21
2023-06-07T06:17:05.865Z,81.30
2023-06-07T06:18:05.871Z,81.97
2023-06-07T06:19:05.804Z,81.87
2023-06-07T06:20:05.996Z,81.06
2023-06-07T06:21:05.770Z,80.35
2023-06-07T06:22:05.766Z,79.85
2023-06-07T06:23:05.756Z,81.20
2023-06-07T06:24:05.774Z,81.30
2023-06-07T06:25:05.733Z,80.59
2023-06-07T06:26:05.735Z,80.90
2023-06-07T06:27:05.713Z,81.60
2023-06-07T06:28:05.744Z,81.81
2023-06-07T06:29:05.680Z,81.71
2023-06-07T06:30:05.975Z,81.40
2023-06-07T06:31:05.750Z,81.91
2023-06-07T06:32:05.684Z,81.60
2023-06-07T06:33:05.680Z,81.50
2023-06-07T06:34:05.625Z,81.91
2023-06-07T06:35:05.633Z,81.60
2023-06-07T06:36:05.641Z,81.71
2023-06-07T06:37:05.605Z,82.28
2023-06-07T06:38:05.584Z,81.37
2023-06-07T06:39:05.569Z,81.87
2023-06-07T06:40:06.003Z,81.77
2023-06-07T06:41:08.322Z,82.07
2023-06-07T06:42:05.551Z,81.60
2023-06-07T06:43:05.549Z,81.10
2023-06-07T06:44:05.547Z,81.71
2023-06-07T06:45:05.505Z,81.40
2023-06-07T06:46:05.492Z,81.50
2023-06-07T06:47:05.600Z,82.31
2023-06-07T06:48:05.713Z,81.50
2023-06-07T06:49:12.902Z,82.11
2023-06-07T06:50:18.518Z,81.77
2023-06-07T06:51:06.461Z,81.77
2023-06-07T06:52:05.438Z,82.07
2023-06-07T06:53:05.414Z,81.77
2023-06-07T06:54:05.421Z,81.71
2023-06-07T06:55:05.395Z,80.90
2023-06-07T06:56:05.394Z,80.79
2023-06-07T06:57:05.464Z,81.40
2023-06-07T06:58:05.386Z,82.31
2023-06-07T06:59:05.376Z,81.81
2023-06-07T07:00:05.582Z,82.42
2023-06-07T07:01:05.320Z,81.60
2023-06-07T07:02:05.332Z,81.40
2023-06-07T07:03:05.334Z,80.99
2023-06-07T07:04:05.415Z,80.86
2023-06-07T07:05:05.306Z,80.49
2023-06-07T07:06:05.287Z,80.99
2023-06-07T07:07:05.254Z,81.06
2023-06-07T07:08:05.302Z,81.67
2023-06-07T07:09:05.238Z,80.76
2023-06-07T07:10:05.428Z,79.85
2023-06-07T07:11:05.236Z,79.44
2023-06-07T07:12:05.223Z,79.94
2023-06-07T07:13:05.191Z,79.94
2023-06-07T07:14:05.218Z,79.85
2023-06-07T07:15:05.201Z,80.25
2023-06-07T07:16:05.235Z,79.74
2023-06-07T07:17:05.256Z,79.74
2023-06-07T07:18:05.238Z,79.94
2023-06-07T07:19:05.132Z,80.76
2023-06-07T07:20:05.603Z,81.06
2023-06-07T07:21:05.102Z,81.06
2023-06-07T07:22:05.097Z,80.86
2023-06-07T07:23:05.079Z,81.23
2023-06-07T07:24:05.111Z,81.43
2023-06-07T07:25:05.098Z,82.10
2023-06-07T07:26:05.059Z,82.24
2023-06-07T07:27:05.041Z,82.10
2023-06-07T07:28:05.024Z,81.69
2023-06-07T07:29:05.009Z,81.99
2023-06-07T07:30:05.165Z,81.52
2023-06-07T07:31:05.009Z,81.29
2023-06-07T07:32:04.980Z,81.29
2023-06-07T07:33:05.034Z,81.18
2023-06-07T07:34:04.963Z,80.78
2023-06-07T07:35:04.986Z,80.58
2023-06-07T07:36:04.960Z,79.77
2023-06-07T07:37:04.966Z,80.11
2023-06-07T07:38:04.911Z,80.52
2023-06-07T07:39:04.898Z,80.72
2023-06-07T07:40:05.087Z,80.21
2023-06-07T07:41:04.879Z,79.91
2023-06-07T07:42:04.907Z,79.60
2023-06-07T07:43:04.873Z,80.52
2023-06-07T07:44:04.849Z,80.11
2023-06-07T07:45:04.845Z,80.31
2023-06-07T07:46:05.003Z,79.91
2023-06-07T07:47:04.827Z,79.91
2023-06-07T07:48:04.894Z,80.41
2023-06-07T07:49:04.794Z,80.38
2023-06-07T07:50:04.971Z,80.78
2023-06-07T07:51:04.764Z,80.78
2023-06-07T07:52:04.773Z,80.18
2023-06-07T07:53:04.774Z,80.78
2023-06-07T07:54:04.733Z,80.18
2023-06-07T07:55:05.113Z,79.80
2023-06-07T07:56:04.716Z,80.01
2023-06-07T07:57:04.704Z,80.01
2023-06-07T07:58:04.767Z,79.60
2023-06-07T07:59:04.704Z,80.31
2023-06-07T08:00:04.901Z,81.09
2023-06-07T08:01:04.668Z,80.58
2023-06-07T08:02:04.645Z,78.75
2023-06-07T08:03:04.829Z,79.20
2023-06-07T08:04:04.722Z,79.30
2023-06-07T08:05:04.829Z,79.60
2023-06-07T08:06:04.613Z,80.47
2023-06-07T08:07:04.583Z,80.68
2023-06-07T08:08:04.674Z,80.98
2023-06-07T08:09:04.588Z,80.38
2023-06-07T08:10:04.803Z,79.87
2023-06-07T08:11:04.547Z,79.83
2023-06-07T08:12:04.533Z,80.24
2023-06-07T08:13:04.522Z,79.63
2023-06-07T08:14:04.502Z,79.02
2023-06-07T08:15:04.489Z,78.92
2023-06-07T08:16:04.538Z,80.04
2023-06-07T08:17:04.475Z,78.82
2023-06-07T08:18:04.483Z,78.62
2023-06-07T08:19:04.510Z,78.01
2023-06-07T08:20:04.719Z,77.81
2023-06-07T08:21:04.426Z,78.28
2023-06-07T08:22:04.416Z,78.31
2023-06-07T08:23:04.419Z,78.78
2023-06-07T08:24:04.644Z,77.91
2023-06-07T08:25:04.383Z,78.11
2023-06-07T08:26:04.381Z,78.58
2023-06-07T08:27:04.360Z,78.28
2023-06-07T08:28:04.370Z,77.67
2023-06-07T08:29:04.335Z,78.17
2023-06-07T08:30:04.639Z,77.37
2023-06-07T08:31:04.334Z,77.77
2023-06-07T08:32:04.303Z,78.17
2023-06-07T08:33:04.349Z,77.94
2023-06-07T08:34:04.296Z,77.13
2023-06-07T08:35:04.302Z,77.03
2023-06-07T08:36:04.282Z,77.13
2023-06-07T08:37:04.243Z,76.28
2023-06-07T08:38:04.234Z,75.71
2023-06-07T08:39:04.239Z,74.90
2023-06-07T08:40:04.764Z,74.90
2023-06-07T08:41:04.202Z,75.31
2023-06-07T08:42:04.204Z,75.61
2023-06-07T08:43:04.179Z,76.12
2023-06-07T08:44:04.186Z,76.22
2023-06-07T08:45:04.167Z,76.52
2023-06-07T08:46:04.232Z,77.03
2023-06-07T08:47:04.144Z,78.14
2023-06-07T08:48:04.174Z,78.20
2023-06-07T08:49:04.133Z,77.94
2023-06-07T08:50:04.455Z,78.20
2023-06-07T08:51:04.086Z,76.99
2023-06-07T08:52:15.478Z,76.59
2023-06-07T08:53:05.076Z,77.09
2023-06-07T08:54:04.054Z,77.56
2023-06-07T08:55:04.081Z,77.19
2023-06-07T08:56:04.081Z,76.55
2023-06-07T08:57:04.116Z,76.04
2023-06-07T08:58:04.017Z,76.39
2023-06-07T08:59:04.017Z,76.55
2023-06-07T09:00:04.370Z,76.86
2023-06-07T09:01:03.996Z,76.75
2023-06-07T09:02:03.968Z,76.25
2023-06-07T09:03:04.062Z,75.24
2023-06-07T09:04:03.958Z,75.64
2023-06-07T09:05:03.968Z,74.84
2023-06-07T09:06:03.919Z,75.24
2023-06-07T09:07:03.913Z,75.95
2023-06-07T09:08:03.911Z,76.15
2023-06-07T09:09:03.902Z,75.60
2023-06-07T09:10:04.320Z,76.82
2023-06-07T09:11:03.884Z,76.18
2023-06-07T09:12:03.903Z,76.48
2023-06-07T09:13:03.866Z,76.28
2023-06-07T09:14:03.846Z,76.18
2023-06-07T09:15:03.820Z,75.98
2023-06-07T09:16:03.830Z,75.43
2023-06-07T09:17:03.935Z,74.02
2023-06-07T09:18:04.127Z,73.22
2023-06-07T09:19:03.798Z,73.05
2023-06-07T09:20:04.199Z,72.64
2023-06-07T09:21:03.752Z,73.01
2023-06-07T09:22:03.772Z,73.52
2023-06-07T09:23:03.738Z,72.14
2023-06-07T09:24:03.806Z,71.60
2023-06-07T09:25:03.967Z,71.91
2023-06-07T09:26:03.721Z,72.20
2023-06-07T09:27:03.687Z,71.80
2023-06-07T09:28:03.831Z,72.11
2023-06-07T09:29:03.680Z,71.87
2023-06-07T09:30:04.089Z,72.17
2023-06-07T09:31:03.691Z,72.34
2023-06-07T09:32:03.629Z,72.64
2023-06-07T09:33:03.687Z,73.01
2023-06-07T09:34:03.628Z,71.80
2023-06-07T09:35:03.812Z,72.47
2023-06-07T09:36:03.636Z,70.86
2023-06-07T09:37:03.651Z,69.42
2023-06-07T09:38:03.598Z,69.82
2023-06-07T09:39:03.567Z,70.93
2023-06-07T09:40:03.942Z,71.40
2023-06-07T09:41:03.708Z,70.59
2023-06-07T09:42:03.521Z,68.18
2023-06-07T09:43:03.522Z,69.02
2023-06-07T09:44:03.593Z,69.12
2023-06-07T09:45:03.492Z,69.82
2023-06-07T09:46:03.586Z,71.33
2023-06-07T09:47:05.051Z,72.20
2023-06-07T09:48:03.577Z,71.53
2023-06-07T09:49:03.473Z,72.00
2023-06-07T09:50:03.734Z,72.10
2023-06-07T09:51:03.442Z,72.10
2023-06-07T09:52:03.432Z,71.80
2023-06-07T09:53:03.468Z,72.20
2023-06-07T09:54:03.429Z,72.20
2023-06-07T09:55:04.119Z,71.50
2023-06-07T09:56:03.423Z,72.41
2023-06-07T09:57:03.439Z,71.50
2023-06-07T09:58:03.377Z,70.19
2023-06-07T09:59:03.410Z,70.03
2023-06-07T10:00:04.004Z,70.03
2023-06-07T10:01:03.446Z,69.96
2023-06-07T10:02:03.304Z,69.85
2023-06-07T10:03:03.365Z,70.56
2023-06-07T10:04:03.380Z,70.06
2023-06-07T10:05:03.266Z,70.39
2023-06-07T10:06:03.295Z,71.16
2023-06-07T10:07:03.273Z,71.10
2023-06-07T10:08:03.238Z,71.26
2023-06-07T10:09:03.284Z,71.56
2023-06-07T10:10:03.795Z,70.39
2023-06-07T10:11:03.216Z,70.70
2023-06-07T10:12:03.241Z,70.59
2023-06-07T10:13:03.196Z,71.16
2023-06-07T10:14:03.169Z,72.20
2023-06-07T10:15:03.188Z,71.10
2023-06-07T10:16:03.255Z,70.79
2023-06-07T10:17:03.178Z,71.36
2023-06-07T10:18:03.153Z,71.97
2023-06-07T10:19:03.180Z,70.86
2023-06-07T10:20:03.674Z,71.36
2023-06-07T10:21:03.131Z,71.56
2023-06-07T10:22:03.084Z,72.74
2023-06-07T10:23:03.118Z,72.94
2023-06-07T10:24:03.106Z,72.61
2023-06-07T10:25:03.047Z,72.81
2023-06-07T10:26:03.055Z,72.61
2023-06-07T10:27:03.058Z,73.18
2023-06-07T10:28:03.018Z,72.33
2023-06-07T10:29:03.032Z,72.71
2023-06-07T10:30:12.739Z,72.37
2023-06-07T10:31:02.983Z,72.24
2023-06-07T10:32:03.073Z,70.03
2023-06-07T10:33:03.030Z,69.49
2023-06-07T10:34:02.984Z,68.35
2023-06-07T10:35:02.973Z,68.46
2023-06-07T10:36:02.942Z,66.25
2023-06-07T10:37:02.974Z,65.85
2023-06-07T10:38:02.920Z,65.75
2023-06-07T10:39:02.904Z,65.95
2023-06-07T10:40:03.123Z,66.95
2023-06-07T10:41:02.896Z,67.25
2023-06-07T10:42:02.908Z,68.12
2023-06-07T10:43:02.856Z,68.32
2023-06-07T10:44:02.835Z,69.12
2023-06-07T10:45:02.837Z,68.89
2023-06-07T10:46:02.872Z,68.96
2023-06-07T10:47:02.860Z,67.76
2023-06-07T10:48:02.835Z,66.66
2023-06-07T10:49:02.791Z,65.75
2023-06-07T10:50:02.801Z,65.69
2023-06-07T10:51:02.799Z,66.39
2023-06-07T10:52:02.756Z,67.69
2023-06-07T10:53:02.781Z,65.22
2023-06-07T10:54:02.733Z,64.62
2023-06-07T10:55:02.793Z,65.75
2023-06-07T10:56:02.785Z,65.75
2023-06-07T10:57:02.721Z,66.35
2023-06-07T10:58:02.704Z,66.35
2023-06-07T10:59:02.682Z,66.75
2023-06-07T11:00:02.778Z,68.46
2023-06-07T11:01:02.715Z,68.65
2023-06-07T11:02:02.759Z,68.85
2023-06-07T11:03:02.710Z,66.45
2023-06-07T11:04:03.039Z,67.05
2023-06-07T11:05:02.800Z,67.12
2023-06-07T11:06:02.706Z,67.92
2023-06-07T11:07:02.584Z,68.12
2023-06-07T11:08:02.653Z,69.32
2023-06-07T11:09:02.638Z,66.82
2023-06-07T11:10:02.619Z,67.82
2023-06-07T11:11:02.976Z,68.29
2023-06-07T11:12:02.530Z,66.39
2023-06-07T11:13:02.533Z,66.59
2023-06-07T11:14:02.513Z,67.46
2023-06-07T11:15:02.551Z,66.96
2023-06-07T11:16:02.512Z,65.02
2023-06-07T11:17:02.596Z,66.13
2023-06-07T11:18:02.605Z,65.59
2023-06-07T11:19:02.464Z,65.59
2023-06-07T11:20:02.799Z,64.39
2023-06-07T11:21:02.456Z,64.49
2023-06-07T11:22:02.470Z,64.29
2023-06-07T11:23:02.412Z,64.03
2023-06-07T11:24:02.510Z,64.62
2023-06-07T11:25:02.459Z,65.02
2023-06-07T11:26:02.377Z,65.83
2023-06-07T11:27:02.414Z,65.02
2023-06-07T11:28:02.390Z,67.13
2023-06-07T11:29:02.507Z,65.12
2023-06-07T11:30:02.496Z,66.02
2023-06-07T11:31:02.369Z,65.83
2023-06-07T11:32:02.501Z,64.29
2023-06-07T11:33:02.440Z,67.02
2023-06-07T11:34:02.371Z,66.02
2023-06-07T11:35:02.283Z,66.32
2023-06-07T11:36:02.298Z,64.52
2023-06-07T11:37:02.292Z,64.52
2023-06-07T11:38:02.248Z,65.66
2023-06-07T11:39:02.231Z,67.05
2023-06-07T11:40:02.425Z,66.66
2023-06-07T11:41:02.220Z,66.96
2023-06-07T11:42:02.196Z,66.46
2023-06-07T11:43:02.214Z,67.16
2023-06-07T11:44:02.178Z,67.46
2023-06-07T11:45:02.176Z,66.05
2023-06-07T11:46:02.179Z,66.46
2023-06-07T11:47:02.230Z,67.36
2023-06-07T11:48:02.221Z,66.75
2023-06-07T11:49:02.222Z,66.09
2023-06-07T11:50:02.162Z,65.39
2023-06-07T11:51:02.110Z,65.09
2023-06-07T11:52:02.118Z,65.69
2023-06-07T11:53:02.107Z,66.39
2023-06-07T11:54:02.084Z,65.89
2023-06-07T11:55:02.052Z,65.99
2023-06-07T11:56:02.039Z,64.89
2023-06-07T11:57:02.057Z,66.19
2023-06-07T11:58:02.039Z,65.52
2023-06-07T11:59:02.013Z,66.09
2023-06-07T12:00:02.007Z,67.39
2023-06-07T12:01:01.981Z,67.09
2023-06-07T12:02:02.001Z,66.78
2023-06-07T12:03:02.187Z,68.26
2023-06-07T12:04:02.156Z,69.12
2023-06-07T12:05:02.011Z,68.69
2023-06-07T12:06:01.929Z,64.39
2023-06-07T12:07:01.920Z,65.56
2023-06-07T12:08:02.027Z,65.76
2023-06-07T12:09:01.917Z,63.93
2023-06-07T12:10:01.892Z,64.03
2023-06-07T12:11:01.917Z,64.00
2023-06-07T12:12:01.859Z,64.90
2023-06-07T12:13:01.846Z,62.87
2023-06-07T12:14:01.856Z,61.80
2023-06-07T12:15:01.867Z,62.10
2023-06-07T12:16:01.902Z,62.23
2023-06-07T12:17:01.808Z,63.40
2023-06-07T12:18:01.850Z,63.70
2023-06-07T12:19:01.786Z,62.97
2023-06-07T12:20:01.840Z,62.01
2023-06-07T12:21:01.773Z,63.30
2023-06-07T12:22:01.747Z,62.20
2023-06-07T12:23:01.736Z,60.88
2023-06-07T12:24:01.875Z,62.07
2023-06-07T12:25:01.753Z,62.18
2023-06-07T12:26:01.731Z,60.17
2023-06-07T12:27:01.698Z,63.47
2023-06-07T12:28:01.677Z,63.57
2023-06-07T12:29:01.701Z,62.18
2023-06-07T12:30:01.658Z,62.10
2023-06-07T12:31:01.686Z,61.80
2023-06-07T12:32:01.641Z,61.30
2023-06-07T12:33:01.669Z,62.07
2023-06-07T12:34:01.634Z,62.07
2023-06-07T12:35:01.608Z,62.97
2023-06-07T12:36:01.618Z,63.37
2023-06-07T12:37:01.609Z,62.64
2023-06-07T12:38:01.570Z,62.04
2023-06-07T12:39:01.569Z,60.65
2023-06-07T12:40:01.708Z,60.65
2023-06-07T12:41:01.687Z,62.15
2023-06-07T12:42:01.526Z,62.04
2023-06-07T12:43:01.533Z,62.24
2023-06-07T12:44:01.503Z,61.91
2023-06-07T12:45:01.498Z,61.39
2023-06-07T12:46:01.502Z,62.08
2023-06-07T12:47:01.547Z,60.19
2023-06-07T12:48:01.535Z,61.99
2023-06-07T12:49:01.458Z,61.85
2023-06-07T12:50:01.483Z,58.67
2023-06-07T12:51:01.432Z,59.39
2023-06-07T12:52:01.435Z,59.79